createdAt,value
2017-04-26T00:00:57.576Z,87.20
2017-04-26T00:01:57.566Z,87.50
2017-04-26T00:02:57.201Z,87.80
2017-04-26T00:03:56.789Z,88.40
2017-04-26T00:04:56.341Z,88.40
2017-04-26T00:05:55.581Z,88.50
2017-04-26T00:06:54.816Z,87.90
2017-04-26T00:07:54.060Z,88.10
2017-04-26T00:08:53.681Z,87.90
2017-04-26T00:09:53.673Z,88.50
2017-04-26T00:10:53.656Z,88.30
2017-04-26T00:11:53.683Z,87.30
2017-04-26T00:12:52.926Z,86.80
2017-04-26T00:13:52.180Z,88.20
2017-04-26T00:14:52.193Z,89.60
2017-04-26T00:15:51.449Z,89.30
2017-04-26T00:16:50.705Z,89.30
2017-04-26T00:17:49.948Z,89.50
2017-04-26T00:18:49.983Z,89.70
2017-04-26T00:19:49.221Z,90.00
2017-04-26T00:20:48.529Z,89.80
2017-04-26T00:21:47.772Z,89.50
2017-04-26T00:22:47.025Z,89.30
2017-04-26T00:23:47.022Z,89.20
2017-04-26T00:24:47.017Z,89.10
2017-04-26T00:25:46.270Z,89.60
2017-04-26T00:26:45.532Z,89.60
2017-04-26T00:27:44.791Z,89.60
2017-04-26T00:28:45.134Z,89.00
2017-04-26T00:29:44.441Z,89.50
2017-04-26T00:30:44.489Z,90.10
2017-04-26T00:31:44.045Z,90.20
2017-04-26T00:32:43.676Z,90.00
2017-04-26T00:33:42.934Z,89.80
2017-04-26T00:34:42.210Z,89.80
2017-04-26T00:35:42.441Z,89.80
2017-04-26T00:36:41.693Z,89.60
2017-04-26T00:37:41.710Z,89.30
2017-04-26T00:38:41.730Z,89.30
2017-04-26T00:39:40.974Z,90.00
2017-04-26T00:40:40.213Z,89.80
2017-04-26T00:41:39.460Z,89.80
2017-04-26T00:42:38.704Z,89.40
2017-04-26T00:43:37.975Z,89.30
2017-04-26T00:44:37.257Z,89.30
2017-04-26T00:45:36.505Z,89.60
2017-04-26T00:46:36.097Z,89.80
2017-04-26T00:47:36.422Z,90.00
2017-04-26T00:48:35.672Z,90.10
2017-04-26T00:49:35.282Z,89.90
2017-04-26T00:50:34.564Z,90.10
2017-04-26T00:51:34.173Z,90.00
2017-04-26T00:52:33.429Z,90.10
2017-04-26T00:53:32.671Z,90.40
2017-04-26T00:54:32.269Z,90.00
2017-04-26T00:55:31.873Z,89.60
2017-04-26T00:56:31.534Z,89.70
2017-04-26T00:57:31.036Z,89.70
2017-04-26T00:58:30.281Z,90.30
2017-04-26T00:59:30.334Z,90.30
2017-04-26T01:00:29.937Z,90.10
2017-04-26T01:01:29.204Z,90.10
2017-04-26T01:02:28.481Z,90.10
2017-04-26T01:03:28.073Z,90.30
2017-04-26T01:04:28.065Z,90.20
2017-04-26T01:05:28.405Z,90.10
2017-04-26T01:06:27.664Z,90.20
2017-04-26T01:07:26.949Z,90.20
2017-04-26T01:08:26.226Z,90.20
2017-04-26T01:09:25.476Z,90.40
2017-04-26T01:10:25.071Z,90.40
2017-04-26T01:11:24.684Z,90.40
2017-04-26T01:12:24.288Z,90.40
2017-04-26T01:13:23.548Z,90.30
2017-04-26T01:14:22.893Z,90.50
2017-04-26T01:15:22.480Z,90.40
2017-04-26T01:16:22.085Z,90.30
2017-04-26T01:17:21.572Z,90.10
2017-04-26T01:18:20.841Z,90.20
2017-04-26T01:19:20.738Z,90.30
2017-04-26T01:20:20.022Z,90.10
2017-04-26T01:21:19.629Z,89.30
2017-04-26T01:22:18.890Z,90.10
2017-04-26T01:23:19.237Z,89.80
2017-04-26T01:24:18.485Z,90.40
2017-04-26T01:25:18.836Z,90.30
2017-04-26T01:26:18.101Z,90.00
2017-04-26T01:27:18.085Z,90.20
2017-04-26T01:28:17.343Z,90.40
2017-04-26T01:29:16.604Z,90.60
2017-04-26T01:30:16.207Z,91.20
2017-04-26T01:31:15.549Z,91.00
2017-04-26T01:32:14.868Z,91.00
2017-04-26T01:33:14.865Z,90.90
2017-04-26T01:34:14.363Z,90.70
2017-04-26T01:35:13.969Z,90.60
2017-04-26T01:36:13.960Z,90.70
2017-04-26T01:37:13.452Z,90.50
2017-04-26T01:38:12.734Z,90.50
2017-04-26T01:39:12.012Z,90.60
2017-04-26T01:40:11.255Z,90.70
2017-04-26T01:41:10.518Z,90.80
2017-04-26T01:42:10.508Z,90.80
2017-04-26T01:43:10.060Z,90.90
2017-04-26T01:44:09.594Z,91.00
2017-04-26T01:45:09.202Z,91.00
2017-04-26T01:46:09.137Z,91.10
2017-04-26T01:47:09.146Z,91.10
2017-04-26T01:48:09.388Z,91.10
2017-04-26T01:49:08.713Z,91.20
2017-04-26T01:50:08.397Z,91.40
2017-04-26T01:51:07.988Z,91.50
2017-04-26T01:52:07.800Z,91.30
2017-04-26T01:53:07.820Z,91.10
2017-04-26T01:54:07.422Z,91.30
2017-04-26T01:55:06.669Z,91.30
2017-04-26T01:56:05.952Z,91.40
2017-04-26T01:57:05.213Z,91.20
2017-04-26T01:58:05.209Z,91.30
2017-04-26T01:59:04.806Z,91.30
2017-04-26T02:00:04.065Z,91.20
2017-04-26T02:01:03.656Z,91.10
2017-04-26T02:02:03.000Z,91.10
2017-04-26T02:03:02.473Z,91.00
2017-04-26T02:04:02.718Z,91.20
2017-04-26T02:05:02.288Z,91.20
2017-04-26T02:06:01.536Z,91.10
2017-04-26T02:07:00.802Z,91.00
2017-04-26T02:08:00.760Z,91.20
2017-04-26T02:09:00.368Z,91.10
2017-04-26T02:09:59.618Z,90.80
2017-04-26T02:10:58.868Z,90.90
2017-04-26T02:11:59.117Z,90.90
2017-04-26T02:12:58.364Z,91.00
2017-04-26T02:13:58.398Z,91.30
2017-04-26T02:14:57.988Z,90.80
2017-04-26T02:15:57.252Z,91.10
2017-04-26T02:16:56.506Z,90.90
2017-04-26T02:17:56.465Z,90.90
2017-04-26T02:18:56.077Z,90.80
2017-04-26T02:19:55.366Z,90.80
2017-04-26T02:20:54.616Z,90.90
2017-04-26T02:21:53.876Z,90.90
2017-04-26T02:22:53.124Z,90.80
2017-04-26T02:23:53.117Z,91.00
2017-04-26T02:24:53.106Z,91.40
2017-04-26T02:25:52.381Z,91.10
2017-04-26T02:26:51.638Z,91.30
2017-04-26T02:27:50.901Z,91.30
2017-04-26T02:28:51.157Z,91.00
2017-04-26T02:29:50.412Z,90.90
2017-04-26T02:30:50.421Z,91.30
2017-04-26T02:31:50.047Z,91.30
2017-04-26T02:32:49.306Z,91.10
2017-04-26T02:33:50.002Z,91.30
2017-04-26T02:34:49.598Z,91.30
2017-04-26T02:35:49.254Z,91.20
2017-04-26T02:36:48.517Z,91.50
2017-04-26T02:37:48.554Z,91.50
2017-04-26T02:38:48.157Z,91.40
2017-04-26T02:39:47.430Z,91.40
2017-04-26T02:40:47.081Z,91.30
2017-04-26T02:41:46.947Z,91.10
2017-04-26T02:42:46.566Z,91.20
2017-04-26T02:43:46.527Z,91.40
2017-04-26T02:44:46.129Z,91.10
2017-04-26T02:45:45.381Z,91.30
2017-04-26T02:46:45.036Z,91.40
2017-04-26T02:47:44.294Z,91.60
2017-04-26T02:48:44.552Z,91.30
2017-04-26T02:49:43.830Z,91.40
2017-04-26T02:50:43.060Z,91.40
2017-04-26T02:51:42.302Z,91.50
2017-04-26T02:52:42.306Z,91.50
2017-04-26T02:53:41.569Z,91.70
2017-04-26T02:54:41.591Z,91.90
2017-04-26T02:55:41.577Z,92.00
2017-04-26T02:56:41.566Z,91.90
2017-04-26T02:57:40.810Z,91.80
2017-04-26T02:58:40.366Z,91.70
2017-04-26T02:59:40.346Z,91.50
2017-04-26T03:00:40.369Z,91.30
2017-04-26T03:01:40.573Z,91.40
2017-04-26T03:02:39.841Z,91.90
2017-04-26T03:03:39.087Z,92.10
2017-04-26T03:04:39.701Z,92.10
2017-04-26T03:05:40.017Z,91.90
2017-04-26T03:06:40.377Z,91.90
2017-04-26T03:07:39.959Z,91.70
2017-04-26T03:08:39.553Z,91.70
2017-04-26T03:09:38.789Z,91.80
2017-04-26T03:10:38.029Z,91.80
2017-04-26T03:11:37.630Z,92.20
2017-04-26T03:12:36.892Z,92.00
2017-04-26T03:13:37.222Z,92.00
2017-04-26T03:14:36.468Z,92.10
2017-04-26T03:15:36.057Z,92.00
2017-04-26T03:16:35.808Z,92.00
2017-04-26T03:17:35.049Z,92.10
2017-04-26T03:18:35.405Z,92.00
2017-04-26T03:19:34.683Z,91.80
2017-04-26T03:20:35.029Z,92.10
2017-04-26T03:21:34.618Z,91.80
2017-04-26T03:22:33.860Z,91.50
2017-04-26T03:23:33.437Z,91.60
2017-04-26T03:24:32.722Z,91.80
2017-04-26T03:25:32.302Z,92.00
2017-04-26T03:26:31.537Z,92.00
2017-04-26T03:27:30.756Z,91.90
2017-04-26T03:28:31.064Z,92.20
2017-04-26T03:29:31.752Z,92.00
2017-04-26T03:30:31.366Z,92.10
2017-04-26T03:31:30.931Z,92.00
2017-04-26T03:32:30.513Z,92.10
2017-04-26T03:33:29.753Z,91.90
2017-04-26T03:34:29.034Z,91.90
2017-04-26T03:35:28.614Z,91.80
2017-04-26T03:36:28.105Z,91.70
2017-04-26T03:37:27.689Z,91.80
2017-04-26T03:38:27.192Z,91.80
2017-04-26T03:39:26.446Z,91.90
2017-04-26T03:40:26.795Z,91.80
2017-04-26T03:41:26.614Z,91.80
2017-04-26T03:42:25.889Z,92.00
2017-04-26T03:43:25.156Z,92.40
2017-04-26T03:44:24.437Z,92.20
2017-04-26T03:45:23.681Z,92.20
2017-04-26T03:46:23.581Z,92.10
2017-04-26T03:47:22.818Z,92.00
2017-04-26T03:48:22.842Z,92.00
2017-04-26T03:49:22.437Z,91.70
2017-04-26T03:50:21.684Z,91.90
2017-04-26T03:51:20.974Z,92.30
2017-04-26T03:52:20.236Z,92.40
2017-04-26T03:53:19.478Z,92.10
2017-04-26T03:54:19.603Z,92.10
2017-04-26T03:55:18.861Z,92.50
2017-04-26T03:56:18.451Z,92.40
2017-04-26T03:57:17.688Z,92.20
2017-04-26T03:58:16.935Z,92.20
2017-04-26T03:59:16.184Z,92.20
2017-04-26T04:00:15.560Z,92.10
2017-04-26T04:01:14.817Z,92.00
2017-04-26T04:02:15.396Z,91.70
2017-04-26T04:03:14.624Z,91.70
2017-04-26T04:04:14.880Z,91.90
2017-04-26T04:05:14.130Z,91.90
2017-04-26T04:06:14.510Z,92.10
2017-04-26T04:07:14.114Z,92.70
2017-04-26T04:08:13.356Z,92.80
2017-04-26T04:09:12.596Z,92.80
2017-04-26T04:10:11.836Z,92.60
2017-04-26T04:11:11.073Z,92.70
2017-04-26T04:12:10.333Z,92.70
2017-04-26T04:13:09.805Z,92.70
2017-04-26T04:14:10.138Z,92.60
2017-04-26T04:15:10.017Z,92.50
2017-04-26T04:16:09.610Z,92.20
2017-04-26T04:17:09.956Z,91.80
2017-04-26T04:18:09.199Z,91.80
2017-04-26T04:19:08.446Z,91.70
2017-04-26T04:20:08.022Z,92.30
2017-04-26T04:21:07.265Z,92.60
2017-04-26T04:22:06.892Z,92.60
2017-04-26T04:23:07.121Z,92.50
2017-04-26T04:24:06.721Z,92.50
2017-04-26T04:25:05.966Z,92.50
2017-04-26T04:26:05.766Z,92.60
2017-04-26T04:27:05.006Z,92.40
2017-04-26T04:28:04.581Z,92.30
2017-04-26T04:29:03.836Z,92.20
2017-04-26T04:30:04.222Z,92.70
2017-04-26T04:31:03.712Z,92.20
2017-04-26T04:32:03.348Z,92.30
2017-04-26T04:33:02.581Z,92.40
2017-04-26T04:34:02.170Z,92.40
2017-04-26T04:35:02.165Z,92.40
2017-04-26T04:36:01.393Z,92.20
2017-04-26T04:37:00.628Z,92.30
2017-04-26T04:38:00.210Z,92.40
2017-04-26T04:38:59.788Z,92.40
2017-04-26T04:39:59.020Z,92.50
2017-04-26T04:40:59.280Z,92.50
2017-04-26T04:41:58.869Z,92.40
2017-04-26T04:42:58.113Z,92.30
2017-04-26T04:43:57.347Z,92.20
2017-04-26T04:44:56.584Z,92.00
2017-04-26T04:45:55.809Z,91.90
2017-04-26T04:46:55.329Z,91.90
2017-04-26T04:47:54.580Z,91.80
2017-04-26T04:48:54.578Z,91.80
2017-04-26T04:49:54.556Z,92.00
2017-04-26T04:50:53.787Z,91.70
2017-04-26T04:51:53.840Z,91.60
2017-04-26T04:52:53.111Z,91.00
2017-04-26T04:53:52.344Z,90.60
2017-04-26T04:54:51.953Z,89.60
2017-04-26T04:55:51.177Z,88.80
2017-04-26T04:56:50.396Z,88.20
2017-04-26T04:57:50.207Z,85.80
2017-04-26T04:58:49.906Z,85.30
2017-04-26T04:59:49.124Z,83.90
2017-04-26T05:00:48.345Z,83.70
2017-04-26T05:01:47.569Z,82.90
2017-04-26T05:02:47.297Z,80.40
2017-04-26T05:03:47.220Z,81.10
2017-04-26T05:04:47.496Z,79.30
2017-04-26T05:05:47.484Z,79.50
2017-04-26T05:06:46.709Z,77.60
2017-04-26T05:07:45.933Z,76.50
2017-04-26T05:08:46.245Z,78.00
2017-04-26T05:09:46.217Z,77.80
2017-04-26T05:10:45.488Z,76.10
2017-04-26T05:11:45.461Z,75.30
2017-04-26T05:12:45.041Z,76.50
2017-04-26T05:13:44.570Z,75.60
2017-04-26T05:14:43.857Z,76.90
2017-04-26T05:15:44.553Z,77.50
2017-04-26T05:16:44.565Z,77.00
2017-04-26T05:17:44.532Z,76.50
2017-04-26T05:18:43.765Z,77.10
2017-04-26T05:19:43.014Z,76.60
2017-04-26T05:20:42.944Z,75.10
2017-04-26T05:21:45.185Z,73.80
2017-04-26T05:22:47.108Z,74.40
2017-04-26T05:23:46.341Z,72.60
2017-04-26T05:24:46.317Z,72.60
2017-04-26T05:25:45.915Z,70.60
2017-04-26T05:26:47.558Z,70.40
2017-04-26T05:27:47.549Z,70.50
2017-04-26T05:28:46.809Z,70.70
2017-04-26T05:29:46.383Z,71.10
2017-04-26T05:30:47.051Z,70.60
2017-04-26T05:31:46.277Z,71.20
2017-04-26T05:32:45.513Z,69.90
2017-04-26T05:33:45.093Z,70.40
2017-04-26T05:34:45.088Z,71.90
2017-04-26T05:35:45.068Z,70.80
2017-04-26T05:36:44.341Z,70.20
2017-04-26T05:37:43.589Z,69.40
2017-04-26T05:38:43.556Z,67.60
2017-04-26T05:39:43.130Z,65.10
2017-04-26T05:40:42.388Z,63.40
2017-04-26T05:41:41.904Z,63.30
2017-04-26T05:42:41.141Z,62.90
2017-04-26T05:43:40.369Z,62.70
2017-04-26T05:44:39.597Z,62.80
2017-04-26T05:45:39.177Z,61.40
2017-04-26T05:46:38.424Z,62.60
2017-04-26T05:47:38.389Z,62.00
2017-04-26T05:48:37.657Z,60.40
2017-04-26T05:49:36.922Z,59.30
2017-04-26T05:50:36.166Z,58.30
2017-04-26T05:51:35.420Z,58.60
2017-04-26T05:52:34.684Z,59.50
2017-04-26T05:53:34.670Z,59.30
2017-04-26T05:54:34.297Z,58.80
2017-04-26T05:55:33.533Z,59.20
2017-04-26T05:56:32.781Z,58.20
2017-04-26T05:57:32.705Z,57.00
2017-04-26T05:58:32.325Z,57.20
2017-04-26T05:59:31.570Z,57.90
2017-04-26T06:00:30.861Z,57.40
2017-04-26T06:01:30.108Z,56.80
2017-04-26T06:02:29.767Z,55.70
2017-04-26T06:03:29.029Z,55.30
2017-04-26T06:04:29.036Z,55.60
2017-04-26T06:05:29.786Z,57.00
2017-04-26T06:06:29.032Z,55.70
2017-04-26T06:07:28.276Z,54.80
2017-04-26T06:08:27.516Z,55.10
2017-04-26T06:09:26.761Z,55.60
2017-04-26T06:10:26.034Z,56.80
2017-04-26T06:11:26.145Z,58.50
2017-04-26T06:12:25.448Z,58.90
2017-04-26T06:13:24.706Z,60.80
2017-04-26T06:14:24.285Z,60.50
2017-04-26T06:15:23.516Z,60.50
2017-04-26T06:16:22.807Z,61.00
2017-04-26T06:17:22.072Z,62.90
2017-04-26T06:18:22.017Z,61.60
2017-04-26T06:19:21.261Z,60.60
2017-04-26T06:20:21.237Z,60.10
2017-04-26T06:21:20.472Z,58.90
2017-04-26T06:22:20.093Z,57.50
2017-04-26T06:23:19.929Z,57.90
2017-04-26T06:24:20.548Z,58.60
2017-04-26T06:25:19.806Z,59.80
2017-04-26T06:26:19.044Z,58.40
2017-04-26T06:27:18.285Z,56.60
2017-04-26T06:28:17.906Z,57.30
2017-04-26T06:29:17.833Z,56.80
2017-04-26T06:30:17.065Z,55.80
2017-04-26T06:31:16.661Z,56.00
2017-04-26T06:32:15.912Z,53.90
2017-04-26T06:33:15.152Z,53.10
2017-04-26T06:34:15.082Z,52.10
2017-04-26T06:35:14.672Z,52.30
2017-04-26T06:36:13.912Z,53.10
2017-04-26T06:37:13.904Z,54.90
2017-04-26T06:38:13.904Z,59.30
2017-04-26T06:39:13.148Z,60.90
2017-04-26T06:40:12.678Z,62.50
2017-04-26T06:41:11.924Z,65.10
2017-04-26T06:42:11.180Z,65.30
2017-04-26T06:43:11.165Z,67.30
2017-04-26T06:44:10.405Z,69.20
2017-04-26T06:45:09.655Z,70.30
2017-04-26T06:46:09.265Z,70.70
2017-04-26T06:47:09.564Z,70.80
2017-04-26T06:48:08.821Z,71.50
2017-04-26T06:49:08.057Z,72.00
2017-04-26T06:50:08.049Z,72.50
2017-04-26T06:51:07.518Z,71.90
2017-04-26T06:52:07.152Z,71.40
2017-04-26T06:53:06.385Z,70.60
2017-04-26T06:54:06.288Z,70.20
2017-04-26T06:55:05.777Z,70.00
2017-04-26T06:56:05.048Z,69.60
2017-04-26T06:57:04.654Z,68.80
2017-04-26T06:58:04.282Z,67.60
2017-04-26T06:59:03.865Z,67.20
2017-04-26T07:00:03.108Z,66.60
2017-04-26T07:01:02.341Z,65.70
2017-04-26T07:02:01.868Z,67.10
2017-04-26T07:03:07.692Z,67.60
2017-04-26T07:04:07.886Z,68.50
2017-04-26T07:05:07.490Z,69.20
2017-04-26T07:06:07.086Z,69.80
2017-04-26T07:07:06.673Z,70.10
2017-04-26T07:08:07.020Z,68.50
2017-04-26T07:09:06.256Z,66.70
2017-04-26T07:10:06.577Z,66.70
2017-04-26T07:11:06.962Z,65.60
2017-04-26T07:12:06.192Z,65.80
2017-04-26T07:13:06.519Z,66.20
2017-04-26T07:14:05.800Z,63.70
2017-04-26T07:15:05.733Z,61.40
2017-04-26T07:16:04.966Z,62.00
2017-04-26T07:17:04.562Z,61.50
2017-04-26T07:18:03.834Z,62.50
2017-04-26T07:19:04.742Z,61.60
2017-04-26T07:20:04.370Z,63.40
2017-04-26T07:21:04.240Z,64.80
2017-04-26T07:22:03.838Z,64.60
2017-04-26T07:23:03.095Z,65.80
2017-04-26T07:24:03.000Z,64.70
2017-04-26T07:25:02.982Z,64.60
2017-04-26T07:26:02.632Z,63.50
2017-04-26T07:27:02.209Z,61.30
2017-04-26T07:28:01.644Z,58.70
2017-04-26T07:29:00.877Z,56.40
2017-04-26T07:30:01.196Z,55.70
2017-04-26T07:31:01.521Z,53.70
2017-04-26T07:32:02.129Z,52.00
2017-04-26T07:33:02.681Z,52.40
2017-04-26T07:34:02.250Z,53.40
2017-04-26T07:35:02.561Z,52.10
2017-04-26T07:36:02.536Z,50.80
2017-04-26T07:37:02.201Z,49.90
2017-04-26T07:38:01.420Z,52.20
2017-04-26T07:39:00.637Z,53.90
2017-04-26T07:40:00.996Z,52.70
2017-04-26T07:41:00.227Z,53.60
2017-04-26T07:41:59.694Z,52.40
2017-04-26T07:42:58.944Z,52.80
2017-04-26T07:43:58.465Z,52.70
2017-04-26T07:44:58.036Z,52.80
2017-04-26T07:45:57.285Z,51.90
2017-04-26T07:46:56.884Z,52.80
2017-04-26T07:47:56.114Z,54.50
2017-04-26T07:48:55.664Z,55.50
2017-04-26T07:49:54.888Z,55.20
2017-04-26T07:50:55.193Z,54.90
2017-04-26T07:51:55.152Z,54.40
2017-04-26T07:52:54.376Z,53.40
2017-04-26T07:53:53.612Z,52.90
2017-04-26T07:54:52.874Z,52.10
2017-04-26T07:55:53.188Z,51.30
2017-04-26T07:56:53.154Z,49.70
2017-04-26T07:57:52.376Z,49.20
2017-04-26T07:58:51.624Z,47.60
2017-04-26T07:59:51.180Z,46.00
2017-04-26T08:00:51.173Z,44.70
2017-04-26T08:01:51.141Z,45.90
2017-04-26T08:02:50.370Z,44.60
2017-04-26T08:03:50.341Z,44.70
2017-04-26T08:04:49.600Z,44.00
2017-04-26T08:05:48.829Z,42.50
2017-04-26T08:07:47.666Z,40.80
2017-04-26T08:08:47.245Z,38.90
2017-04-26T08:09:47.560Z,39.70
2017-04-26T08:10:47.524Z,40.50
2017-04-26T08:11:46.748Z,41.30
2017-04-26T08:12:47.083Z,39.50
2017-04-26T08:13:46.661Z,39.10
2017-04-26T08:14:46.628Z,44.40
2017-04-26T08:15:46.100Z,44.50
2017-04-26T08:16:45.317Z,44.50
2017-04-26T08:17:45.616Z,42.80
2017-04-26T08:18:45.236Z,44.60
2017-04-26T08:19:44.813Z,44.90
2017-04-26T08:20:44.376Z,44.80
2017-04-26T08:21:44.294Z,45.60
2017-04-26T08:22:43.521Z,44.40
2017-04-26T08:23:43.490Z,43.70
2017-04-26T08:24:42.736Z,43.60
2017-04-26T08:25:41.957Z,43.40
2017-04-26T08:26:41.529Z,44.60
2017-04-26T08:27:41.501Z,46.60
2017-04-26T08:28:40.716Z,48.10
2017-04-26T08:29:39.988Z,50.50
2017-04-26T08:30:40.237Z,51.00
2017-04-26T08:31:40.193Z,50.20
2017-04-26T08:32:39.764Z,50.60
2017-04-26T08:33:39.001Z,50.60
2017-04-26T08:34:38.572Z,51.90
2017-04-26T08:35:38.140Z,51.90
2017-04-26T08:36:37.388Z,53.60
2017-04-26T08:37:36.616Z,55.10
2017-04-26T08:38:35.852Z,55.20
2017-04-26T08:39:35.073Z,56.50
2017-04-26T08:40:35.041Z,56.70
2017-04-26T08:41:34.609Z,56.80
2017-04-26T08:42:33.864Z,57.00
2017-04-26T08:43:33.082Z,57.40
2017-04-26T08:44:32.310Z,56.80
2017-04-26T08:45:31.533Z,56.40
2017-04-26T08:46:31.501Z,56.50
2017-04-26T08:47:30.725Z,57.10
2017-04-26T08:48:30.776Z,56.50
2017-04-26T08:49:30.361Z,57.10
2017-04-26T08:50:30.173Z,57.20
2017-04-26T08:51:29.688Z,57.40
2017-04-26T08:52:28.919Z,56.60
2017-04-26T08:53:29.489Z,53.70
2017-04-26T08:54:28.752Z,50.00
2017-04-26T08:55:28.353Z,47.80
2017-04-26T08:56:27.705Z,46.80
2017-04-26T08:57:27.300Z,44.40
2017-04-26T08:58:26.893Z,41.10
2017-04-26T08:59:26.128Z,38.30
2017-04-26T09:00:25.404Z,36.00
2017-04-26T09:01:25.732Z,35.00
2017-04-26T09:02:24.973Z,33.80
2017-04-26T09:03:25.540Z,32.50
2017-04-26T09:04:24.796Z,31.70
2017-04-26T09:05:24.381Z,32.10
2017-04-26T09:07:23.989Z,31.00
2017-04-26T09:08:23.301Z,30.00
2017-04-26T09:09:22.578Z,30.00
2017-04-26T09:10:22.165Z,31.70
2017-04-26T09:11:21.400Z,33.50
2017-04-26T09:12:20.681Z,34.40
2017-04-26T09:13:21.017Z,35.90
2017-04-26T09:14:20.633Z,36.70
2017-04-26T09:15:20.217Z,36.90
2017-04-26T09:16:20.152Z,38.10
2017-04-26T09:17:19.398Z,39.00
2017-04-26T09:18:19.339Z,39.30
2017-04-26T09:19:18.576Z,40.30
2017-04-26T09:20:18.548Z,42.40
2017-04-26T09:21:17.829Z,43.10
2017-04-26T09:22:17.421Z,45.50
2017-04-26T09:23:16.669Z,46.80
2017-04-26T09:24:15.937Z,48.50
2017-04-26T09:25:15.181Z,49.40
2017-04-26T09:26:14.450Z,49.60
2017-04-26T09:27:13.685Z,49.40
2017-04-26T09:28:12.920Z,51.20
2017-04-26T09:29:12.157Z,51.50
2017-04-26T09:30:11.729Z,51.50
2017-04-26T09:31:11.304Z,53.90
2017-04-26T09:32:10.540Z,54.90
2017-04-26T09:33:09.780Z,54.80
2017-04-26T09:34:10.108Z,56.20
2017-04-26T09:35:09.920Z,55.90
2017-04-26T09:36:09.193Z,56.40
2017-04-26T09:37:09.116Z,56.10
2017-04-26T09:38:09.044Z,54.80
2017-04-26T09:39:08.280Z,55.90
2017-04-26T09:40:08.600Z,56.20
2017-04-26T09:41:08.603Z,57.30
2017-04-26T09:42:08.641Z,57.90
2017-04-26T09:43:08.528Z,58.10
2017-04-26T09:44:07.773Z,58.70
2017-04-26T09:45:07.357Z,56.90
2017-04-26T09:46:06.592Z,57.70
2017-04-26T09:47:06.573Z,58.30
2017-04-26T09:48:05.840Z,57.00
2017-04-26T09:49:05.425Z,56.10
2017-04-26T09:50:05.346Z,56.70
2017-04-26T09:51:05.713Z,55.80
2017-04-26T09:52:05.713Z,56.60
2017-04-26T09:53:04.941Z,58.20
2017-04-26T09:54:04.886Z,57.40
2017-04-26T09:55:04.444Z,56.60
2017-04-26T09:56:04.000Z,56.80
2017-04-26T09:57:04.553Z,56.20
2017-04-26T09:58:04.116Z,56.40
2017-04-26T09:59:04.089Z,55.30
2017-04-26T10:01:04.272Z,56.20
2017-04-26T10:02:03.493Z,56.10
2017-04-26T10:03:02.717Z,55.80
2017-04-26T10:04:02.672Z,55.50
2017-04-26T10:05:02.233Z,55.60
2017-04-26T10:06:02.220Z,54.70
2017-04-26T10:07:02.533Z,54.00
2017-04-26T10:08:02.849Z,55.20
2017-04-26T10:09:02.821Z,54.80
2017-04-26T10:10:02.041Z,55.20
2017-04-26T10:11:01.269Z,55.50
2017-04-26T10:12:01.612Z,56.40
2017-04-26T10:13:01.201Z,54.00
2017-04-26T10:14:00.777Z,54.20
2017-04-26T10:15:00.010Z,54.20
2017-04-26T10:15:59.572Z,54.00
2017-04-26T10:16:58.796Z,53.30
2017-04-26T10:17:58.389Z,53.30
2017-04-26T10:18:57.953Z,53.40
2017-04-26T10:19:57.528Z,53.30
2017-04-26T10:20:57.839Z,51.90
2017-04-26T10:21:57.813Z,52.50
2017-04-26T10:22:57.379Z,53.60
2017-04-26T10:23:56.920Z,53.80
2017-04-26T10:24:56.480Z,55.10
2017-04-26T10:25:56.046Z,55.00
2017-04-26T10:26:55.613Z,54.40
2017-04-26T10:27:55.528Z,54.00
2017-04-26T10:29:10.564Z,54.60
2017-04-26T10:29:56.816Z,54.50
2017-04-26T10:30:56.729Z,55.20
2017-04-26T10:31:56.183Z,53.90
2017-04-26T10:32:55.944Z,53.20
2017-04-26T10:33:55.173Z,52.70
2017-04-26T10:34:54.396Z,53.00
2017-04-26T10:35:53.648Z,53.40
2017-04-26T10:36:53.608Z,53.50
2017-04-26T10:37:53.181Z,53.50
2017-04-26T10:38:52.664Z,53.00
2017-04-26T10:39:51.876Z,51.80
2017-04-26T10:40:51.097Z,51.60
2017-04-26T10:41:50.354Z,52.20
2017-04-26T10:42:49.928Z,52.80
2017-04-26T10:43:49.492Z,52.20
2017-04-26T10:44:49.448Z,50.90
2017-04-26T10:45:49.008Z,51.20
2017-04-26T10:46:49.676Z,51.90
2017-04-26T10:47:48.933Z,51.80
2017-04-26T10:48:48.848Z,52.80
2017-04-26T10:49:48.089Z,53.70
2017-04-26T10:50:47.688Z,51.80
2017-04-26T10:51:47.184Z,50.80
2017-04-26T10:52:47.120Z,50.50
2017-04-26T10:53:46.786Z,48.80
2017-04-26T10:54:46.373Z,48.40
2017-04-26T10:56:46.999Z,47.10
2017-04-26T10:57:46.237Z,47.80
2017-04-26T10:58:46.200Z,45.20
2017-04-26T10:59:45.528Z,45.80
2017-04-26T11:00:45.508Z,45.10
2017-04-26T11:01:44.745Z,45.40
2017-04-26T11:02:43.984Z,44.20
2017-04-26T11:03:43.260Z,44.00
2017-04-26T11:04:43.391Z,43.50
2017-04-26T11:05:42.637Z,44.90
2017-04-26T11:06:41.874Z,46.80
2017-04-26T11:07:42.861Z,45.90
2017-04-26T11:08:42.096Z,43.90
2017-04-26T11:09:42.109Z,40.80
2017-04-26T11:10:42.476Z,41.80
2017-04-26T11:11:41.745Z,41.30
2017-04-26T11:12:41.338Z,42.40
2017-04-26T11:13:41.296Z,41.90
2017-04-26T11:14:40.584Z,43.00
2017-04-26T11:15:40.054Z,43.50
2017-04-26T11:16:39.712Z,43.30
2017-04-26T11:17:39.693Z,42.40
2017-04-26T11:18:38.934Z,41.30
2017-04-26T11:19:38.197Z,42.50
2017-04-26T11:20:38.172Z,42.00
2017-04-26T11:21:37.409Z,41.50
2017-04-26T11:22:37.346Z,41.70
2017-04-26T11:23:36.608Z,41.70
2017-04-26T11:24:35.861Z,41.50
2017-04-26T11:25:35.097Z,43.20
2017-04-26T11:26:34.700Z,41.00
2017-04-26T11:27:34.470Z,40.90
2017-04-26T11:28:34.480Z,37.80
2017-04-26T11:29:34.464Z,36.20
2017-04-26T11:30:33.708Z,36.40
2017-04-26T11:31:33.014Z,34.50
2017-04-26T11:32:32.257Z,34.80
2017-04-26T11:33:31.557Z,35.90
2017-04-26T11:34:30.828Z,37.10
2017-04-26T11:35:30.812Z,37.30
2017-04-26T11:36:30.406Z,37.10
2017-04-26T11:37:29.645Z,38.60
2017-04-26T11:38:30.668Z,38.20
2017-04-26T11:39:29.921Z,38.10
2017-04-26T11:40:29.185Z,37.90
2017-04-26T11:41:28.488Z,38.80
2017-04-26T11:42:28.075Z,39.90
2017-04-26T11:43:27.322Z,40.50
2017-04-26T11:44:26.908Z,40.50
2017-04-26T11:45:26.897Z,40.60
2017-04-26T11:46:26.174Z,39.30
2017-04-26T11:47:25.419Z,39.50
2017-04-26T11:48:25.265Z,39.70
2017-04-26T11:49:25.185Z,40.10
2017-04-26T11:50:24.409Z,40.90
2017-04-26T11:51:23.972Z,40.80
2017-04-26T11:52:23.686Z,41.20
2017-04-26T11:53:23.648Z,41.90
2017-04-26T11:54:22.869Z,41.90
2017-04-26T11:55:22.432Z,41.70
2017-04-26T11:56:22.005Z,39.70
2017-04-26T11:57:21.260Z,39.70
2017-04-26T11:58:21.612Z,39.80
2017-04-26T11:59:20.842Z,40.10
2017-04-26T12:00:20.056Z,41.00
2017-04-26T12:01:20.016Z,41.30
2017-04-26T12:02:19.232Z,41.90
2017-04-26T12:03:19.144Z,41.60
2017-04-26T12:04:19.424Z,41.90
2017-04-26T12:05:19.304Z,42.00
2017-04-26T12:06:18.533Z,42.60
2017-04-26T12:07:18.096Z,42.50
2017-04-26T12:08:17.605Z,43.00
2017-04-26T12:09:16.833Z,44.10
2017-04-26T12:10:16.154Z,45.00
2017-04-26T12:11:15.728Z,46.00
2017-04-26T12:12:14.945Z,47.50
2017-04-26T12:13:14.521Z,49.50
2017-04-26T12:14:14.480Z,50.00
2017-04-26T12:15:13.703Z,50.70
2017-04-26T12:16:12.966Z,51.60
2017-04-26T12:17:12.537Z,52.90
2017-04-26T12:18:12.100Z,53.90
2017-04-26T12:19:12.658Z,55.80
2017-04-26T12:20:11.885Z,55.90
2017-04-26T12:21:11.100Z,55.30
2017-04-26T12:22:11.465Z,57.70
2017-04-26T12:23:11.024Z,59.30
2017-04-26T12:24:10.588Z,65.60
2017-04-26T12:25:10.149Z,65.30
2017-04-26T12:26:09.365Z,62.50
2017-04-26T12:27:08.937Z,63.10
2017-04-26T12:28:08.544Z,61.90
2017-04-26T12:29:08.121Z,59.70
2017-04-26T12:30:07.344Z,59.00
2017-04-26T12:31:06.574Z,59.50
2017-04-26T12:32:05.794Z,58.40
2017-04-26T12:33:05.708Z,59.40
2017-04-26T12:34:04.956Z,58.10
2017-04-26T12:35:05.268Z,57.80
2017-04-26T12:36:05.232Z,58.20
2017-04-26T12:37:04.845Z,58.30
2017-04-26T12:38:04.078Z,56.20
2017-04-26T12:39:03.349Z,54.40
2017-04-26T12:40:03.745Z,53.50
2017-04-26T12:41:03.311Z,54.10
2017-04-26T12:42:02.536Z,53.00
2017-04-26T12:43:01.852Z,51.10
2017-04-26T12:44:01.821Z,50.30
2017-04-26T12:45:01.040Z,49.60
2017-04-26T12:46:01.032Z,48.50
2017-04-26T12:47:00.996Z,48.50
2017-04-26T12:48:00.216Z,49.30
2017-04-26T12:48:59.796Z,47.40
2017-04-26T12:49:59.033Z,49.20
2017-04-26T12:50:58.613Z,46.90
2017-04-26T12:51:59.110Z,46.40